sensor_id;sensor_type;location;lat;lon;timestamp;P1;durP1;ratioP1;P2;durP2;ratioP2
7541;SDS011;3812;50.006;8.230;2022-09-09T00:01:08;2.30;;;1.60;;
7541;SDS011;3812;50.006;8.230;2022-09-09T00:03:43;2.63;;;1.90;;
7541;SDS011;3812;50.006;8.230;2022-09-09T00:06:17;5.07;;;1.80;;
7541;SDS011;3812;50.006;8.230;2022-09-09T00:08:51;3.10;;;2.13;;
7541;SDS011;3812;50.006;8.230;2022-09-09T00:11:29;5.83;;;2.00;;
7541;SDS011;3812;50.006;8.230;2022-09-09T00:14:03;3.20;;;2.00;;
7541;SDS011;3812;50.006;8.230;2022-09-09T00:16:38;3.30;;;2.27;;
7541;SDS011;3812;50.006;8.230;2022-09-09T00:19:13;3.07;;;2.20;;
7541;SDS011;3812;50.006;8.230;2022-09-09T00:21:47;4.53;;;2.40;;
7541;SDS011;3812;50.006;8.230;2022-09-09T00:24:24;3.53;;;2.30;;
7541;SDS011;3812;50.006;8.230;2022-09-09T00:26:57;2.90;;;1.90;;
7541;SDS011;3812;50.006;8.230;2022-09-09T00:29:33;2.63;;;2.20;;
7541;SDS011;3812;50.006;8.230;2022-09-09T00:32:11;2.33;;;2.00;;
7541;SDS011;3812;50.006;8.230;2022-09-09T00:34:46;3.93;;;2.50;;
7541;SDS011;3812;50.006;8.230;2022-09-09T00:37:15;3.03;;;2.30;;
7541;SDS011;3812;50.006;8.230;2022-09-09T00:39:45;3.33;;;2.23;;
7541;SDS011;3812;50.006;8.230;2022-09-09T00:42:15;3.10;;;2.27;;
7541;SDS011;3812;50.006;8.230;2022-09-09T00:44:51;3.43;;;2.20;;
7541;SDS011;3812;50.006;8.230;2022-09-09T00:47:44;3.57;;;2.50;;
7541;SDS011;3812;50.006;8.230;2022-09-09T00:50:25;4.33;;;2.53;;
7541;SDS011;3812;50.006;8.230;2022-09-09T00:53:04;4.77;;;2.40;;
7541;SDS011;3812;50.006;8.230;2022-09-09T00:55:39;3.20;;;2.40;;
7541;SDS011;3812;50.006;8.230;2022-09-09T00:58:14;5.37;;;2.47;;
7541;SDS011;3812;50.006;8.230;2022-09-09T01:00:42;7.53;;;3.63;;
7541;SDS011;3812;50.006;8.230;2022-09-09T01:03:19;2.70;;;2.50;;
7541;SDS011;3812;50.006;8.230;2022-09-09T01:05:51;3.87;;;2.40;;
7541;SDS011;3812;50.006;8.230;2022-09-09T01:08:34;2.70;;;2.20;;
7541;SDS011;3812;50.006;8.230;2022-09-09T01:11:16;4.53;;;2.50;;
7541;SDS011;3812;50.006;8.230;2022-09-09T01:13:49;5.37;;;2.47;;
7541;SDS011;3812;50.006;8.230;2022-09-09T01:16:24;5.73;;;2.80;;
7541;SDS011;3812;50.006;8.230;2022-09-09T01:18:53;2.20;;;1.90;;
7541;SDS011;3812;50.006;8.230;2022-09-09T01:21:25;3.43;;;2.10;;
7541;SDS011;3812;50.006;8.230;2022-09-09T01:24:09;3.40;;;2.80;;
7541;SDS011;3812;50.006;8.230;2022-09-09T01:27:05;3.63;;;2.30;;
7541;SDS011;3812;50.006;8.230;2022-09-09T01:29:33;2.80;;;2.37;;
7541;SDS011;3812;50.006;8.230;2022-09-09T01:32:01;5.20;;;2.20;;
7541;SDS011;3812;50.006;8.230;2022-09-09T01:34:31;6.37;;;2.20;;
7541;SDS011;3812;50.006;8.230;2022-09-09T01:37:02;5.07;;;2.50;;
7541;SDS011;3812;50.006;8.230;2022-09-09T01:39:31;3.50;;;2.60;;
7541;SDS011;3812;50.006;8.230;2022-09-09T01:42:02;3.13;;;2.40;;
7541;SDS011;3812;50.006;8.230;2022-09-09T01:44:34;3.60;;;2.30;;
7541;SDS011;3812;50.006;8.230;2022-09-09T01:47:02;2.00;;;1.80;;
7541;SDS011;3812;50.006;8.230;2022-09-09T01:49:30;4.20;;;2.20;;
7541;SDS011;3812;50.006;8.230;2022-09-09T01:52:02;3.37;;;2.13;;
7541;SDS011;3812;50.006;8.230;2022-09-09T01:54:33;4.30;;;2.20;;
7541;SDS011;3812;50.006;8.230;2022-09-09T01:57:11;2.70;;;2.23;;
7541;SDS011;3812;50.006;8.230;2022-09-09T01:59:48;3.77;;;2.70;;
7541;SDS011;3812;50.006;8.230;2022-09-09T02:02:30;4.93;;;2.87;;
7541;SDS011;3812;50.006;8.230;2022-09-09T02:05:11;3.17;;;2.63;;
7541;SDS011;3812;50.006;8.230;2022-09-09T02:07:46;5.77;;;2.77;;
7541;SDS011;3812;50.006;8.230;2022-09-09T02:10:32;4.27;;;2.60;;
7541;SDS011;3812;50.006;8.230;2022-09-09T02:13:13;3.73;;;2.60;;
7541;SDS011;3812;50.006;8.230;2022-09-09T02:15:44;4.30;;;2.63;;
7541;SDS011;3812;50.006;8.230;2022-09-09T02:18:17;4.87;;;3.20;;
7541;SDS011;3812;50.006;8.230;2022-09-09T02:20:51;4.07;;;3.13;;
7541;SDS011;3812;50.006;8.230;2022-09-09T02:23:19;3.80;;;3.13;;
7541;SDS011;3812;50.006;8.230;2022-09-09T02:25:51;5.13;;;3.10;;
7541;SDS011;3812;50.006;8.230;2022-09-09T02:28:24;3.50;;;2.67;;
7541;SDS011;3812;50.006;8.230;2022-09-09T02:30:55;4.17;;;2.73;;
7541;SDS011;3812;50.006;8.230;2022-09-09T02:33:30;3.50;;;2.17;;
7541;SDS011;3812;50.006;8.230;2022-09-09T02:36:02;3.13;;;2.60;;
7541;SDS011;3812;50.006;8.230;2022-09-09T02:38:33;4.67;;;2.60;;
7541;SDS011;3812;50.006;8.230;2022-09-09T02:41:08;4.60;;;2.80;;
7541;SDS011;3812;50.006;8.230;2022-09-09T02:43:37;4.23;;;3.10;;
7541;SDS011;3812;50.006;8.230;2022-09-09T02:46:08;4.53;;;2.80;;
7541;SDS011;3812;50.006;8.230;2022-09-09T02:48:52;3.40;;;2.67;;
7541;SDS011;3812;50.006;8.230;2022-09-09T02:51:31;4.60;;;2.87;;
7541;SDS011;3812;50.006;8.230;2022-09-09T02:54:04;3.23;;;2.93;;
7541;SDS011;3812;50.006;8.230;2022-09-09T02:56:39;5.13;;;2.90;;
7541;SDS011;3812;50.006;8.230;2022-09-09T02:59:12;3.70;;;2.70;;
7541;SDS011;3812;50.006;8.230;2022-09-09T03:01:39;4.60;;;3.00;;
7541;SDS011;3812;50.006;8.230;2022-09-09T03:04:08;4.07;;;2.90;;
7541;SDS011;3812;50.006;8.230;2022-09-09T03:06:35;7.00;;;2.80;;
7541;SDS011;3812;50.006;8.230;2022-09-09T03:09:13;5.40;;;3.30;;
7541;SDS011;3812;50.006;8.230;2022-09-09T03:11:40;3.23;;;2.93;;
7541;SDS011;3812;50.006;8.230;2022-09-09T03:14:07;5.27;;;3.27;;
7541;SDS011;3812;50.006;8.230;2022-09-09T03:16:37;5.77;;;3.37;;
7541;SDS011;3812;50.006;8.230;2022-09-09T03:19:05;4.60;;;2.97;;
7541;SDS011;3812;50.006;8.230;2022-09-09T03:21:32;4.17;;;3.20;;
7541;SDS011;3812;50.006;8.230;2022-09-09T03:23:59;4.93;;;3.13;;
7541;SDS011;3812;50.006;8.230;2022-09-09T03:26:28;5.93;;;3.10;;
7541;SDS011;3812;50.006;8.230;2022-09-09T03:28:55;5.90;;;3.53;;
7541;SDS011;3812;50.006;8.230;2022-09-09T03:31:26;3.90;;;3.10;;
7541;SDS011;3812;50.006;8.230;2022-09-09T03:33:57;3.50;;;3.20;;
7541;SDS011;3812;50.006;8.230;2022-09-09T03:36:26;4.00;;;2.90;;
7541;SDS011;3812;50.006;8.230;2022-09-09T03:38:53;4.83;;;2.50;;
7541;SDS011;3812;50.006;8.230;2022-09-09T03:41:22;8.00;;;3.80;;
7541;SDS011;3812;50.006;8.230;2022-09-09T03:43:50;5.33;;;2.97;;
7541;SDS011;3812;50.006;8.230;2022-09-09T03:46:17;4.37;;;2.83;;
7541;SDS011;3812;50.006;8.230;2022-09-09T03:48:44;6.27;;;2.93;;
7541;SDS011;3812;50.006;8.230;2022-09-09T03:51:12;4.40;;;2.80;;
7541;SDS011;3812;50.006;8.230;2022-09-09T03:53:41;3.73;;;2.50;;
7541;SDS011;3812;50.006;8.230;2022-09-09T03:56:08;4.07;;;2.70;;
7541;SDS011;3812;50.006;8.230;2022-09-09T03:58:36;5.13;;;3.10;;
7541;SDS011;3812;50.006;8.230;2022-09-09T04:01:07;2.97;;;2.30;;
7541;SDS011;3812;50.006;8.230;2022-09-09T04:03:36;5.50;;;2.70;;
7541;SDS011;3812;50.006;8.230;2022-09-09T04:06:03;3.37;;;2.70;;
7541;SDS011;3812;50.006;8.230;2022-09-09T04:08:33;4.57;;;2.60;;
7541;SDS011;3812;50.006;8.230;2022-09-09T04:11:01;5.47;;;2.80;;
7541;SDS011;3812;50.006;8.230;2022-09-09T04:13:30;4.90;;;2.60;;
7541;SDS011;3812;50.006;8.230;2022-09-09T04:15:58;6.10;;;2.57;;
7541;SDS011;3812;50.006;8.230;2022-09-09T04:18:26;2.83;;;2.40;;
7541;SDS011;3812;50.006;8.230;2022-09-09T04:20:54;4.37;;;2.50;;
7541;SDS011;3812;50.006;8.230;2022-09-09T04:23:23;3.43;;;2.70;;
7541;SDS011;3812;50.006;8.230;2022-09-09T04:25:54;4.50;;;2.90;;
7541;SDS011;3812;50.006;8.230;2022-09-09T04:28:22;5.33;;;2.77;;
7541;SDS011;3812;50.006;8.230;2022-09-09T04:30:52;4.47;;;2.70;;
7541;SDS011;3812;50.006;8.230;2022-09-09T04:33:19;3.00;;;2.30;;
7541;SDS011;3812;50.006;8.230;2022-09-09T04:35:49;9.07;;;3.03;;
7541;SDS011;3812;50.006;8.230;2022-09-09T04:38:19;4.93;;;2.83;;
7541;SDS011;3812;50.006;8.230;2022-09-09T04:40:50;3.17;;;2.70;;
7541;SDS011;3812;50.006;8.230;2022-09-09T04:43:20;5.20;;;2.67;;
7541;SDS011;3812;50.006;8.230;2022-09-09T04:45:51;3.90;;;2.27;;
7541;SDS011;3812;50.006;8.230;2022-09-09T04:48:21;5.07;;;2.60;;
7541;SDS011;3812;50.006;8.230;2022-09-09T04:50:56;2.90;;;2.60;;
7541;SDS011;3812;50.006;8.230;2022-09-09T04:53:23;5.70;;;2.50;;
7541;SDS011;3812;50.006;8.230;2022-09-09T04:55:51;4.70;;;2.40;;
7541;SDS011;3812;50.006;8.230;2022-09-09T04:58:21;5.60;;;2.60;;
7541;SDS011;3812;50.006;8.230;2022-09-09T05:00:49;7.10;;;2.10;;
7541;SDS011;3812;50.006;8.230;2022-09-09T05:03:18;4.43;;;2.23;;
7541;SDS011;3812;50.006;8.230;2022-09-09T05:05:45;3.87;;;2.23;;
7541;SDS011;3812;50.006;8.230;2022-09-09T05:08:13;2.53;;;2.00;;
7541;SDS011;3812;50.006;8.230;2022-09-09T05:10:40;4.13;;;2.40;;
7541;SDS011;3812;50.006;8.230;2022-09-09T05:13:08;3.63;;;2.40;;
7541;SDS011;3812;50.006;8.230;2022-09-09T05:15:37;5.47;;;2.27;;
7541;SDS011;3812;50.006;8.230;2022-09-09T05:18:05;5.03;;;2.63;;
7541;SDS011;3812;50.006;8.230;2022-09-09T05:20:33;3.60;;;2.20;;
7541;SDS011;3812;50.006;8.230;2022-09-09T05:23:01;3.73;;;2.67;;
7541;SDS011;3812;50.006;8.230;2022-09-09T05:25:30;5.07;;;2.40;;
7541;SDS011;3812;50.006;8.230;2022-09-09T05:27:58;8.90;;;3.17;;
7541;SDS011;3812;50.006;8.230;2022-09-09T05:30:26;6.47;;;2.70;;
7541;SDS011;3812;50.006;8.230;2022-09-09T05:32:56;6.27;;;2.30;;
7541;SDS011;3812;50.006;8.230;2022-09-09T05:35:23;3.63;;;2.27;;
7541;SDS011;3812;50.006;8.230;2022-09-09T05:37:51;4.60;;;2.47;;
7541;SDS011;3812;50.006;8.230;2022-09-09T05:40:18;4.50;;;2.13;;
7541;SDS011;3812;50.006;8.230;2022-09-09T05:42:47;2.10;;;1.90;;
7541;SDS011;3812;50.006;8.230;2022-09-09T05:45:14;5.53;;;2.50;;
7541;SDS011;3812;50.006;8.230;2022-09-09T05:47:42;3.57;;;2.17;;
7541;SDS011;3812;50.006;8.230;2022-09-09T05:50:13;3.93;;;2.27;;
7541;SDS011;3812;50.006;8.230;2022-09-09T05:52:41;5.67;;;2.77;;
7541;SDS011;3812;50.006;8.230;2022-09-09T05:55:09;6.67;;;2.87;;
7541;SDS011;3812;50.006;8.230;2022-09-09T05:57:36;4.83;;;2.40;;
7541;SDS011;3812;50.006;8.230;2022-09-09T06:00:04;4.73;;;2.33;;
7541;SDS011;3812;50.006;8.230;2022-09-09T06:02:39;5.40;;;2.63;;
7541;SDS011;3812;50.006;8.230;2022-09-09T06:05:08;3.17;;;2.27;;
7541;SDS011;3812;50.006;8.230;2022-09-09T06:07:37;4.37;;;2.30;;
7541;SDS011;3812;50.006;8.230;2022-09-09T06:10:08;3.13;;;2.20;;
7541;SDS011;3812;50.006;8.230;2022-09-09T06:12:35;3.37;;;2.37;;
7541;SDS011;3812;50.006;8.230;2022-09-09T06:15:04;3.93;;;2.53;;
7541;SDS011;3812;50.006;8.230;2022-09-09T06:17:32;4.30;;;2.70;;
7541;SDS011;3812;50.006;8.230;2022-09-09T06:19:59;8.07;;;2.60;;
7541;SDS011;3812;50.006;8.230;2022-09-09T06:22:28;5.10;;;2.87;;
7541;SDS011;3812;50.006;8.230;2022-09-09T06:24:56;3.23;;;2.27;;
7541;SDS011;3812;50.006;8.230;2022-09-09T06:27:24;4.40;;;2.67;;
7541;SDS011;3812;50.006;8.230;2022-09-09T06:29:51;7.10;;;2.50;;
7541;SDS011;3812;50.006;8.230;2022-09-09T06:32:18;5.50;;;2.30;;
7541;SDS011;3812;50.006;8.230;2022-09-09T06:34:45;2.33;;;2.10;;
7541;SDS011;3812;50.006;8.230;2022-09-09T06:37:14;2.10;;;1.90;;
7541;SDS011;3812;50.006;8.230;2022-09-09T06:39:46;2.13;;;1.87;;
7541;SDS011;3812;50.006;8.230;2022-09-09T06:42:15;2.30;;;1.70;;
7541;SDS011;3812;50.006;8.230;2022-09-09T06:44:42;4.87;;;2.00;;
7541;SDS011;3812;50.006;8.230;2022-09-09T06:47:15;2.67;;;1.70;;
7541;SDS011;3812;50.006;8.230;2022-09-09T06:49:43;3.37;;;1.63;;
7541;SDS011;3812;50.006;8.230;2022-09-09T06:52:10;2.47;;;1.60;;
7541;SDS011;3812;50.006;8.230;2022-09-09T06:54:38;2.33;;;1.73;;
7541;SDS011;3812;50.006;8.230;2022-09-09T06:57:05;6.00;;;2.27;;
7541;SDS011;3812;50.006;8.230;2022-09-09T06:59:35;4.00;;;2.40;;
7541;SDS011;3812;50.006;8.230;2022-09-09T07:02:02;3.30;;;1.70;;
7541;SDS011;3812;50.006;8.230;2022-09-09T07:04:30;2.23;;;1.50;;
7541;SDS011;3812;50.006;8.230;2022-09-09T07:06:57;2.70;;;1.60;;
7541;SDS011;3812;50.006;8.230;2022-09-09T07:09:26;3.30;;;1.60;;
7541;SDS011;3812;50.006;8.230;2022-09-09T07:11:54;3.10;;;1.80;;
7541;SDS011;3812;50.006;8.230;2022-09-09T07:14:24;8.57;;;2.43;;
7541;SDS011;3812;50.006;8.230;2022-09-09T07:17:00;3.43;;;1.70;;
7541;SDS011;3812;50.006;8.230;2022-09-09T07:19:33;6.23;;;1.90;;
7541;SDS011;3812;50.006;8.230;2022-09-09T07:22:03;2.50;;;1.83;;
7541;SDS011;3812;50.006;8.230;2022-09-09T07:24:32;4.63;;;2.17;;
7541;SDS011;3812;50.006;8.230;2022-09-09T07:26:59;3.17;;;2.07;;
7541;SDS011;3812;50.006;8.230;2022-09-09T07:29:28;2.50;;;1.80;;
7541;SDS011;3812;50.006;8.230;2022-09-09T07:31:56;5.33;;;2.10;;
7541;SDS011;3812;50.006;8.230;2022-09-09T07:34:30;3.00;;;2.70;;
7541;SDS011;3812;50.006;8.230;2022-09-09T07:36:57;4.47;;;2.40;;
7541;SDS011;3812;50.006;8.230;2022-09-09T07:39:24;4.00;;;2.37;;
7541;SDS011;3812;50.006;8.230;2022-09-09T07:41:53;5.73;;;2.40;;
7541;SDS011;3812;50.006;8.230;2022-09-09T07:44:22;5.67;;;2.53;;
7541;SDS011;3812;50.006;8.230;2022-09-09T07:47:02;8.47;;;2.60;;
7541;SDS011;3812;50.006;8.230;2022-09-09T07:49:41;4.37;;;2.60;;
7541;SDS011;3812;50.006;8.230;2022-09-09T07:52:08;3.27;;;2.40;;
7541;SDS011;3812;50.006;8.230;2022-09-09T07:54:39;4.83;;;2.70;;
7541;SDS011;3812;50.006;8.230;2022-09-09T07:57:07;4.83;;;2.77;;
7541;SDS011;3812;50.006;8.230;2022-09-09T07:59:36;3.83;;;2.43;;
7541;SDS011;3812;50.006;8.230;2022-09-09T08:02:03;2.67;;;2.10;;
7541;SDS011;3812;50.006;8.230;2022-09-09T08:04:33;5.67;;;2.40;;
7541;SDS011;3812;50.006;8.230;2022-09-09T08:07:03;4.67;;;2.27;;
7541;SDS011;3812;50.006;8.230;2022-09-09T08:09:37;6.67;;;2.73;;
7541;SDS011;3812;50.006;8.230;2022-09-09T08:12:14;3.90;;;2.40;;
7541;SDS011;3812;50.006;8.230;2022-09-09T08:14:41;3.03;;;2.30;;
7541;SDS011;3812;50.006;8.230;2022-09-09T08:17:09;5.00;;;2.80;;
7541;SDS011;3812;50.006;8.230;2022-09-09T08:19:37;5.93;;;2.83;;
7541;SDS011;3812;50.006;8.230;2022-09-09T08:22:13;5.83;;;2.50;;
7541;SDS011;3812;50.006;8.230;2022-09-09T08:24:40;4.13;;;2.50;;
7541;SDS011;3812;50.006;8.230;2022-09-09T08:27:08;4.20;;;2.40;;
7541;SDS011;3812;50.006;8.230;2022-09-09T08:29:36;2.30;;;2.10;;
7541;SDS011;3812;50.006;8.230;2022-09-09T08:32:04;3.57;;;2.10;;
7541;SDS011;3812;50.006;8.230;2022-09-09T08:34:31;4.70;;;2.13;;
7541;SDS011;3812;50.006;8.230;2022-09-09T08:37:03;4.37;;;1.80;;
7541;SDS011;3812;50.006;8.230;2022-09-09T08:39:37;3.83;;;2.30;;
7541;SDS011;3812;50.006;8.230;2022-09-09T08:42:14;2.47;;;1.90;;
7541;SDS011;3812;50.006;8.230;2022-09-09T08:47:35;6.23;;;2.13;;
7541;SDS011;3812;50.006;8.230;2022-09-09T08:50:07;5.03;;;2.03;;
7541;SDS011;3812;50.006;8.230;2022-09-09T08:52:40;6.50;;;2.20;;
7541;SDS011;3812;50.006;8.230;2022-09-09T08:55:15;5.93;;;2.53;;
7541;SDS011;3812;50.006;8.230;2022-09-09T08:57:47;6.20;;;2.47;;
7541;SDS011;3812;50.006;8.230;2022-09-09T09:00:15;5.70;;;2.60;;
7541;SDS011;3812;50.006;8.230;2022-09-09T09:02:43;6.80;;;2.17;;
7541;SDS011;3812;50.006;8.230;2022-09-09T09:05:17;3.33;;;2.03;;
7541;SDS011;3812;50.006;8.230;2022-09-09T09:07:50;2.57;;;1.50;;
7541;SDS011;3812;50.006;8.230;2022-09-09T09:10:29;2.33;;;1.87;;
7541;SDS011;3812;50.006;8.230;2022-09-09T09:13:01;3.03;;;1.63;;
7541;SDS011;3812;50.006;8.230;2022-09-09T09:15:31;1.70;;;1.60;;
7541;SDS011;3812;50.006;8.230;2022-09-09T09:18:02;5.00;;;1.80;;
7541;SDS011;3812;50.006;8.230;2022-09-09T09:20:31;3.97;;;1.40;;
7541;SDS011;3812;50.006;8.230;2022-09-09T09:23:00;5.10;;;1.63;;
7541;SDS011;3812;50.006;8.230;2022-09-09T09:25:31;3.73;;;1.63;;
7541;SDS011;3812;50.006;8.230;2022-09-09T09:28:02;3.27;;;1.67;;
7541;SDS011;3812;50.006;8.230;2022-09-09T09:30:34;4.33;;;1.80;;
7541;SDS011;3812;50.006;8.230;2022-09-09T09:33:11;3.53;;;1.83;;
7541;SDS011;3812;50.006;8.230;2022-09-09T09:35:41;3.77;;;1.40;;
7541;SDS011;3812;50.006;8.230;2022-09-09T09:38:12;4.00;;;1.73;;
7541;SDS011;3812;50.006;8.230;2022-09-09T09:40:49;2.37;;;1.50;;
7541;SDS011;3812;50.006;8.230;2022-09-09T09:43:19;4.20;;;2.00;;
7541;SDS011;3812;50.006;8.230;2022-09-09T09:45:47;4.30;;;1.67;;
7541;SDS011;3812;50.006;8.230;2022-09-09T09:48:16;4.60;;;1.70;;
7541;SDS011;3812;50.006;8.230;2022-09-09T09:50:46;4.83;;;1.70;;
7541;SDS011;3812;50.006;8.230;2022-09-09T09:53:22;2.57;;;1.30;;
7541;SDS011;3812;50.006;8.230;2022-09-09T09:55:56;3.90;;;1.40;;
7541;SDS011;3812;50.006;8.230;2022-09-09T09:58:24;3.60;;;1.63;;
7541;SDS011;3812;50.006;8.230;2022-09-09T10:00:53;3.00;;;1.73;;
7541;SDS011;3812;50.006;8.230;2022-09-09T10:03:25;4.53;;;1.53;;
7541;SDS011;3812;50.006;8.230;2022-09-09T10:05:53;4.13;;;1.60;;
7541;SDS011;3812;50.006;8.230;2022-09-09T10:08:21;2.73;;;1.30;;
7541;SDS011;3812;50.006;8.230;2022-09-09T10:13:41;4.27;;;1.90;;
7541;SDS011;3812;50.006;8.230;2022-09-09T10:16:13;3.73;;;1.67;;
7541;SDS011;3812;50.006;8.230;2022-09-09T10:18:47;2.57;;;1.40;;
7541;SDS011;3812;50.006;8.230;2022-09-09T10:21:20;3.40;;;1.43;;
7541;SDS011;3812;50.006;8.230;2022-09-09T10:23:54;2.13;;;1.33;;
7541;SDS011;3812;50.006;8.230;2022-09-09T10:26:28;3.70;;;1.20;;
7541;SDS011;3812;50.006;8.230;2022-09-09T10:29:04;2.70;;;1.43;;
7541;SDS011;3812;50.006;8.230;2022-09-09T10:31:34;2.37;;;1.30;;
7541;SDS011;3812;50.006;8.230;2022-09-09T10:34:06;4.00;;;0.93;;
7541;SDS011;3812;50.006;8.230;2022-09-09T10:36:38;2.73;;;1.10;;
7541;SDS011;3812;50.006;8.230;2022-09-09T10:39:14;1.13;;;1.00;;
7541;SDS011;3812;50.006;8.230;2022-09-09T10:41:47;1.10;;;0.87;;
7541;SDS011;3812;50.006;8.230;2022-09-09T10:44:28;2.97;;;1.33;;
7541;SDS011;3812;50.006;8.230;2022-09-09T10:47:08;1.20;;;0.90;;
7541;SDS011;3812;50.006;8.230;2022-09-09T10:49:47;2.37;;;1.00;;
7541;SDS011;3812;50.006;8.230;2022-09-09T10:52:17;4.93;;;1.23;;
7541;SDS011;3812;50.006;8.230;2022-09-09T10:54:51;2.07;;;1.00;;
7541;SDS011;3812;50.006;8.230;2022-09-09T10:57:25;1.70;;;1.23;;
7541;SDS011;3812;50.006;8.230;2022-09-09T10:59:56;2.53;;;1.17;;
7541;SDS011;3812;50.006;8.230;2022-09-09T11:02:26;2.70;;;1.30;;
7541;SDS011;3812;50.006;8.230;2022-09-09T11:04:55;2.70;;;1.23;;
7541;SDS011;3812;50.006;8.230;2022-09-09T11:07:26;3.03;;;1.30;;
7541;SDS011;3812;50.006;8.230;2022-09-09T11:09:57;3.17;;;1.33;;
7541;SDS011;3812;50.006;8.230;2022-09-09T11:12:27;1.10;;;0.83;;
7541;SDS011;3812;50.006;8.230;2022-09-09T11:14:59;5.67;;;1.30;;
7541;SDS011;3812;50.006;8.230;2022-09-09T11:17:30;1.90;;;1.03;;
7541;SDS011;3812;50.006;8.230;2022-09-09T11:20:01;1.63;;;1.20;;
7541;SDS011;3812;50.006;8.230;2022-09-09T11:22:29;2.43;;;1.00;;
7541;SDS011;3812;50.006;8.230;2022-09-09T11:24:58;3.07;;;1.10;;
7541;SDS011;3812;50.006;8.230;2022-09-09T11:27:27;2.57;;;1.20;;
7541;SDS011;3812;50.006;8.230;2022-09-09T11:30:14;2.20;;;1.17;;
7541;SDS011;3812;50.006;8.230;2022-09-09T11:32:54;3.40;;;1.17;;
7541;SDS011;3812;50.006;8.230;2022-09-09T11:35:26;1.30;;;0.90;;
7541;SDS011;3812;50.006;8.230;2022-09-09T11:38:18;5.23;;;1.10;;
7541;SDS011;3812;50.006;8.230;2022-09-09T11:40:46;3.87;;;1.20;;
7541;SDS011;3812;50.006;8.230;2022-09-09T11:43:15;3.23;;;1.13;;
7541;SDS011;3812;50.006;8.230;2022-09-09T11:45:50;3.57;;;1.10;;
7541;SDS011;3812;50.006;8.230;2022-09-09T11:48:26;3.00;;;1.00;;
7541;SDS011;3812;50.006;8.230;2022-09-09T11:50:57;3.40;;;1.00;;
7541;SDS011;3812;50.006;8.230;2022-09-09T11:53:25;5.70;;;1.57;;
7541;SDS011;3812;50.006;8.230;2022-09-09T11:56:00;3.47;;;1.20;;
7541;SDS011;3812;50.006;8.230;2022-09-09T11:58:28;1.40;;;0.90;;
7541;SDS011;3812;50.006;8.230;2022-09-09T12:00:59;4.73;;;1.37;;
7541;SDS011;3812;50.006;8.230;2022-09-09T12:03:34;3.43;;;1.10;;
7541;SDS011;3812;50.006;8.230;2022-09-09T12:06:09;2.57;;;1.00;;
7541;SDS011;3812;50.006;8.230;2022-09-09T12:08:37;3.83;;;1.57;;
7541;SDS011;3812;50.006;8.230;2022-09-09T12:11:08;3.27;;;1.00;;
7541;SDS011;3812;50.006;8.230;2022-09-09T12:13:36;1.57;;;1.10;;
7541;SDS011;3812;50.006;8.230;2022-09-09T12:16:04;2.60;;;0.93;;
7541;SDS011;3812;50.006;8.230;2022-09-09T12:18:32;2.43;;;1.23;;
7541;SDS011;3812;50.006;8.230;2022-09-09T12:21:02;4.43;;;1.20;;
7541;SDS011;3812;50.006;8.230;2022-09-09T12:23:35;2.37;;;1.27;;
7541;SDS011;3812;50.006;8.230;2022-09-09T12:26:11;2.40;;;1.20;;
7541;SDS011;3812;50.006;8.230;2022-09-09T12:28:44;3.27;;;1.13;;
7541;SDS011;3812;50.006;8.230;2022-09-09T12:31:16;2.20;;;1.37;;
7541;SDS011;3812;50.006;8.230;2022-09-09T12:33:45;3.93;;;1.17;;
7541;SDS011;3812;50.006;8.230;2022-09-09T12:36:14;3.47;;;1.00;;
7541;SDS011;3812;50.006;8.230;2022-09-09T12:38:42;3.33;;;1.13;;
7541;SDS011;3812;50.006;8.230;2022-09-09T12:41:17;1.83;;;0.97;;
7541;SDS011;3812;50.006;8.230;2022-09-09T12:43:45;1.23;;;0.93;;
7541;SDS011;3812;50.006;8.230;2022-09-09T12:46:15;2.50;;;1.40;;
7541;SDS011;3812;50.006;8.230;2022-09-09T12:48:47;2.43;;;1.00;;
7541;SDS011;3812;50.006;8.230;2022-09-09T12:51:17;5.57;;;1.50;;
7541;SDS011;3812;50.006;8.230;2022-09-09T12:53:46;2.40;;;0.90;;
7541;SDS011;3812;50.006;8.230;2022-09-09T12:56:18;3.17;;;1.13;;
7541;SDS011;3812;50.006;8.230;2022-09-09T12:58:46;1.80;;;0.73;;
7541;SDS011;3812;50.006;8.230;2022-09-09T13:01:18;3.30;;;1.10;;
7541;SDS011;3812;50.006;8.230;2022-09-09T13:03:49;2.67;;;0.97;;
7541;SDS011;3812;50.006;8.230;2022-09-09T13:06:18;2.63;;;0.83;;
7541;SDS011;3812;50.006;8.230;2022-09-09T13:08:48;2.70;;;0.77;;
7541;SDS011;3812;50.006;8.230;2022-09-09T13:11:16;2.63;;;0.70;;
7541;SDS011;3812;50.006;8.230;2022-09-09T13:13:49;3.07;;;0.77;;
7541;SDS011;3812;50.006;8.230;2022-09-09T13:16:18;1.70;;;0.77;;
7541;SDS011;3812;50.006;8.230;2022-09-09T13:18:47;2.00;;;0.77;;
7541;SDS011;3812;50.006;8.230;2022-09-09T13:21:15;2.10;;;0.73;;
7541;SDS011;3812;50.006;8.230;2022-09-09T13:23:48;1.80;;;0.50;;
7541;SDS011;3812;50.006;8.230;2022-09-09T13:26:22;1.43;;;0.80;;
7541;SDS011;3812;50.006;8.230;2022-09-09T13:28:51;1.53;;;0.70;;
7541;SDS011;3812;50.006;8.230;2022-09-09T13:31:20;0.83;;;0.53;;
7541;SDS011;3812;50.006;8.230;2022-09-09T13:33:47;1.73;;;0.77;;
7541;SDS011;3812;50.006;8.230;2022-09-09T13:36:16;3.60;;;0.70;;
7541;SDS011;3812;50.006;8.230;2022-09-09T13:38:54;2.13;;;0.80;;
7541;SDS011;3812;50.006;8.230;2022-09-09T13:41:25;1.70;;;0.90;;
7541;SDS011;3812;50.006;8.230;2022-09-09T13:43:53;2.33;;;0.80;;
7541;SDS011;3812;50.006;8.230;2022-09-09T13:46:25;1.57;;;0.83;;
7541;SDS011;3812;50.006;8.230;2022-09-09T13:48:54;2.23;;;1.00;;
7541;SDS011;3812;50.006;8.230;2022-09-09T13:51:26;1.37;;;0.83;;
7541;SDS011;3812;50.006;8.230;2022-09-09T13:53:55;4.77;;;0.90;;
7541;SDS011;3812;50.006;8.230;2022-09-09T13:56:24;2.67;;;1.00;;
7541;SDS011;3812;50.006;8.230;2022-09-09T13:58:51;2.50;;;0.93;;
7541;SDS011;3812;50.006;8.230;2022-09-09T14:01:19;3.80;;;1.30;;
7541;SDS011;3812;50.006;8.230;2022-09-09T14:03:46;1.90;;;0.97;;
7541;SDS011;3812;50.006;8.230;2022-09-09T14:06:13;1.73;;;1.00;;
7541;SDS011;3812;50.006;8.230;2022-09-09T14:08:42;1.43;;;1.10;;
7541;SDS011;3812;50.006;8.230;2022-09-09T14:11:11;1.80;;;1.00;;
7541;SDS011;3812;50.006;8.230;2022-09-09T14:13:39;1.93;;;1.20;;
7541;SDS011;3812;50.006;8.230;2022-09-09T14:16:06;3.37;;;1.10;;
7541;SDS011;3812;50.006;8.230;2022-09-09T14:18:34;1.70;;;1.07;;
7541;SDS011;3812;50.006;8.230;2022-09-09T14:21:03;2.60;;;1.43;;
7541;SDS011;3812;50.006;8.230;2022-09-09T14:23:30;1.93;;;0.93;;
7541;SDS011;3812;50.006;8.230;2022-09-09T14:25:58;2.73;;;1.40;;
7541;SDS011;3812;50.006;8.230;2022-09-09T14:28:26;4.07;;;1.20;;
7541;SDS011;3812;50.006;8.230;2022-09-09T14:30:53;2.13;;;1.10;;
7541;SDS011;3812;50.006;8.230;2022-09-09T14:33:21;1.73;;;1.00;;
7541;SDS011;3812;50.006;8.230;2022-09-09T14:35:54;1.30;;;0.97;;
7541;SDS011;3812;50.006;8.230;2022-09-09T14:38:22;2.83;;;1.13;;
7541;SDS011;3812;50.006;8.230;2022-09-09T14:40:49;1.67;;;1.00;;
7541;SDS011;3812;50.006;8.230;2022-09-09T14:43:18;2.67;;;1.13;;
7541;SDS011;3812;50.006;8.230;2022-09-09T14:45:45;0.97;;;0.90;;
7541;SDS011;3812;50.006;8.230;2022-09-09T14:48:13;2.90;;;1.20;;
7541;SDS011;3812;50.006;8.230;2022-09-09T14:50:40;2.50;;;1.07;;
7541;SDS011;3812;50.006;8.230;2022-09-09T14:53:08;3.33;;;1.20;;
7541;SDS011;3812;50.006;8.230;2022-09-09T14:55:35;3.57;;;1.43;;
7541;SDS011;3812;50.006;8.230;2022-09-09T14:58:04;2.70;;;1.10;;
7541;SDS011;3812;50.006;8.230;2022-09-09T15:00:33;2.10;;;0.80;;
7541;SDS011;3812;50.006;8.230;2022-09-09T15:03:00;5.20;;;1.40;;
7541;SDS011;3812;50.006;8.230;2022-09-09T15:05:28;2.60;;;0.80;;
7541;SDS011;3812;50.006;8.230;2022-09-09T15:07:57;0.63;;;0.60;;
7541;SDS011;3812;50.006;8.230;2022-09-09T15:10:24;2.50;;;0.80;;
7541;SDS011;3812;50.006;8.230;2022-09-09T15:12:52;3.67;;;1.00;;
7541;SDS011;3812;50.006;8.230;2022-09-09T15:15:19;3.23;;;0.70;;
7541;SDS011;3812;50.006;8.230;2022-09-09T15:17:48;1.50;;;0.80;;
7541;SDS011;3812;50.006;8.230;2022-09-09T15:20:15;1.17;;;0.53;;
7541;SDS011;3812;50.006;8.230;2022-09-09T15:22:42;2.67;;;0.70;;
7541;SDS011;3812;50.006;8.230;2022-09-09T15:25:09;1.97;;;0.67;;
7541;SDS011;3812;50.006;8.230;2022-09-09T15:27:37;1.93;;;0.90;;
7541;SDS011;3812;50.006;8.230;2022-09-09T15:30:06;6.43;;;1.00;;
7541;SDS011;3812;50.006;8.230;2022-09-09T15:32:34;3.23;;;0.80;;
7541;SDS011;3812;50.006;8.230;2022-09-09T15:35:02;1.83;;;0.70;;
7541;SDS011;3812;50.006;8.230;2022-09-09T15:37:29;2.33;;;0.80;;
7541;SDS011;3812;50.006;8.230;2022-09-09T15:39:56;1.30;;;0.83;;
7541;SDS011;3812;50.006;8.230;2022-09-09T15:42:25;2.13;;;0.80;;